createdAt,value
2023-02-18T00:00:54.386Z,12.20
2023-02-18T00:03:27.745Z,9.70
2023-02-18T00:06:01.048Z,12.40
2023-02-18T00:08:33.979Z,11.60
2023-02-18T00:11:08.828Z,10.30
2023-02-18T00:13:41.426Z,11.60
2023-02-18T00:16:14.855Z,11.10
2023-02-18T00:18:47.501Z,10.40
2023-02-18T00:21:20.127Z,11.30
2023-02-18T00:23:54.044Z,9.90
2023-02-18T00:26:26.804Z,9.60
2023-02-18T00:28:59.182Z,14.90
2023-02-18T00:31:34.303Z,11.70
2023-02-18T00:34:07.876Z,10.20
2023-02-18T00:36:40.416Z,10.50
2023-02-18T00:39:18.840Z,10.80
2023-02-18T00:41:51.873Z,10.70
2023-02-18T00:44:24.936Z,10.80
2023-02-18T00:46:57.710Z,10.40
2023-02-18T00:49:30.504Z,8.00
2023-02-18T00:52:03.655Z,8.20
2023-02-18T00:54:37.324Z,5.30
2023-02-18T00:57:09.959Z,4.80
2023-02-18T00:59:43.059Z,3.60
2023-02-18T01:02:15.803Z,4.50
2023-02-18T01:04:49.302Z,3.00
2023-02-18T01:07:23.876Z,3.70
2023-02-18T01:09:57.276Z,5.20
2023-02-18T01:12:29.992Z,3.30
2023-02-18T01:15:03.160Z,3.20
2023-02-18T01:17:35.961Z,2.60
2023-02-18T01:20:14.001Z,3.20
2023-02-18T01:22:47.318Z,3.40
2023-02-18T01:25:19.999Z,3.20
2023-02-18T01:27:52.845Z,3.80
2023-02-18T01:30:26.009Z,3.30
2023-02-18T01:32:59.372Z,3.00
2023-02-18T01:35:33.566Z,3.20
2023-02-18T01:38:06.951Z,3.40
2023-02-18T01:40:46.746Z,3.10
2023-02-18T01:43:19.625Z,2.80
2023-02-18T01:46:24.343Z,3.30
2023-02-18T01:49:00.384Z,4.10
2023-02-18T01:51:37.454Z,2.10
2023-02-18T01:54:15.357Z,5.00
2023-02-18T01:56:50.672Z,3.50
2023-02-18T01:59:27.706Z,3.90
2023-02-18T02:02:01.453Z,3.20
2023-02-18T02:04:35.334Z,4.00
2023-02-18T02:07:09.150Z,1.80
2023-02-18T02:09:43.761Z,1.50
2023-02-18T02:12:38.393Z,1.70
2023-02-18T02:15:36.455Z,1.80
2023-02-18T02:18:29.013Z,4.90
2023-02-18T02:21:30.503Z,2.00
2023-02-18T02:24:30.322Z,3.00
2023-02-18T02:27:24.127Z,2.10
2023-02-18T02:30:43.860Z,3.30
2023-02-18T02:33:42.645Z,2.80
2023-02-18T02:36:18.781Z,3.60
2023-02-18T02:39:02.544Z,2.80
2023-02-18T02:41:48.774Z,3.30
2023-02-18T02:44:29.278Z,2.40
2023-02-18T02:47:10.016Z,3.00
2023-02-18T02:49:50.615Z,3.50
2023-02-18T02:52:27.505Z,2.50
2023-02-18T02:55:00.324Z,3.10
2023-02-18T02:57:51.071Z,2.10
2023-02-18T03:00:40.802Z,2.30
2023-02-18T03:03:37.446Z,2.90
2023-02-18T03:06:38.079Z,3.90
2023-02-18T03:09:18.305Z,3.60
2023-02-18T03:12:03.348Z,2.00
2023-02-18T03:14:47.588Z,2.10
2023-02-18T03:17:29.282Z,2.00
2023-02-18T03:20:10.371Z,2.00
2023-02-18T03:22:50.309Z,1.20
2023-02-18T03:25:23.488Z,1.60
2023-02-18T03:27:58.369Z,0.80
2023-02-18T03:30:34.685Z,3.20
2023-02-18T03:33:11.668Z,2.30
2023-02-18T03:35:46.417Z,4.20
2023-02-18T03:38:23.683Z,3.50
2023-02-18T03:40:57.099Z,2.60
2023-02-18T03:43:30.269Z,2.90
2023-02-18T03:46:04.319Z,1.70
2023-02-18T03:48:37.535Z,2.90
2023-02-18T03:51:10.179Z,1.30
2023-02-18T03:53:42.878Z,3.80
2023-02-18T03:58:47.106Z,2.60
2023-02-18T04:01:19.892Z,3.40
2023-02-18T04:03:53.374Z,3.10
2023-02-18T04:06:26.166Z,3.10
2023-02-18T04:08:58.943Z,3.50
2023-02-18T04:11:31.425Z,4.30
2023-02-18T04:14:06.072Z,1.90
2023-02-18T04:16:39.266Z,2.90
2023-02-18T04:19:11.827Z,3.60
2023-02-18T04:21:44.570Z,3.50
2023-02-18T04:24:17.326Z,3.10
2023-02-18T04:26:49.786Z,2.40
2023-02-18T04:29:22.235Z,3.50
2023-02-18T04:31:54.900Z,4.40
2023-02-18T04:34:27.564Z,2.10
2023-02-18T04:37:00.372Z,3.20
2023-02-18T04:39:32.847Z,4.90
2023-02-18T04:42:09.412Z,2.20
2023-02-18T04:44:42.782Z,3.80
2023-02-18T04:47:15.472Z,2.30
2023-02-18T04:49:49.495Z,1.80
2023-02-18T04:52:22.126Z,1.90
2023-02-18T04:54:54.945Z,3.90
2023-02-18T04:57:27.531Z,2.70
2023-02-18T05:00:00.037Z,3.40
2023-02-18T05:02:32.644Z,4.20
2023-02-18T05:05:05.734Z,2.20
2023-02-18T05:07:38.936Z,2.10
2023-02-18T05:10:16.293Z,2.20
2023-02-18T05:12:50.965Z,2.90
2023-02-18T05:15:23.650Z,4.00
2023-02-18T05:17:56.659Z,2.00
2023-02-18T05:20:29.417Z,2.00
2023-02-18T05:23:02.289Z,2.50
2023-02-18T05:25:34.853Z,3.60
2023-02-18T05:28:07.721Z,4.20
2023-02-18T05:30:40.555Z,2.10
2023-02-18T05:33:13.123Z,2.80
2023-02-18T05:35:45.694Z,2.70
2023-02-18T05:38:18.235Z,2.30
2023-02-18T05:40:50.948Z,1.20
2023-02-18T05:43:23.510Z,2.60
2023-02-18T05:45:56.085Z,3.40
2023-02-18T05:48:28.668Z,2.20
2023-02-18T05:51:01.252Z,1.90
2023-02-18T05:53:35.662Z,3.50
2023-02-18T05:56:09.880Z,2.60
2023-02-18T05:58:42.684Z,4.70
2023-02-18T06:01:15.151Z,3.20
2023-02-18T06:03:47.919Z,2.70
2023-02-18T06:06:20.308Z,2.70
2023-02-18T06:08:53.358Z,1.90
2023-02-18T06:11:25.761Z,2.30
2023-02-18T06:13:58.266Z,4.60
2023-02-18T06:16:33.062Z,2.60
2023-02-18T06:19:05.953Z,1.90
2023-02-18T06:21:38.588Z,2.50
2023-02-18T06:24:11.791Z,4.30
2023-02-18T06:26:44.338Z,3.00
2023-02-18T06:29:16.988Z,2.90
2023-02-18T06:31:49.768Z,3.50
2023-02-18T06:34:23.986Z,2.90
2023-02-18T06:36:56.778Z,3.60
2023-02-18T06:39:29.248Z,4.70
2023-02-18T06:42:01.903Z,2.60
2023-02-18T06:44:36.395Z,3.10
2023-02-18T06:47:10.364Z,7.50
2023-02-18T06:49:42.912Z,6.30
2023-02-18T06:52:15.402Z,4.00
2023-02-18T06:54:48.118Z,2.50
2023-02-18T06:57:21.074Z,4.10
2023-02-18T06:59:56.082Z,6.10
2023-02-18T07:02:28.678Z,7.10
2023-02-18T07:05:01.748Z,8.10
2023-02-18T07:10:06.163Z,3.90
2023-02-18T07:12:39.242Z,2.30
2023-02-18T07:15:13.407Z,2.10
2023-02-18T07:17:47.675Z,2.80
2023-02-18T07:20:25.355Z,3.90
2023-02-18T07:23:01.921Z,3.30
2023-02-18T07:28:06.333Z,2.70
2023-02-18T07:30:39.010Z,3.50
2023-02-18T07:33:11.804Z,4.20
2023-02-18T07:35:44.432Z,3.30
2023-02-18T07:38:17.036Z,3.80
2023-02-18T07:40:50.382Z,4.50
2023-02-18T07:43:23.689Z,4.00
2023-02-18T07:45:56.246Z,4.30
2023-02-18T07:48:29.520Z,2.60
2023-02-18T07:51:12.064Z,2.80
2023-02-18T07:53:47.493Z,1.40
2023-02-18T07:56:23.012Z,2.90
2023-02-18T07:58:56.351Z,2.50
2023-02-18T08:01:29.571Z,3.00
2023-02-18T08:04:02.862Z,2.80
2023-02-18T08:06:38.541Z,1.60
2023-02-18T08:09:11.571Z,1.80
2023-02-18T08:11:44.246Z,3.00
2023-02-18T08:14:17.134Z,2.00
2023-02-18T08:16:49.610Z,2.70
2023-02-18T08:19:22.796Z,2.70
2023-02-18T08:21:55.546Z,1.90
2023-02-18T08:24:28.671Z,3.30
2023-02-18T08:27:04.286Z,3.20
2023-02-18T08:29:37.047Z,4.70
2023-02-18T08:32:09.978Z,1.90
2023-02-18T08:34:42.916Z,3.60
2023-02-18T08:37:15.898Z,3.40
2023-02-18T08:39:49.960Z,2.90
2023-02-18T08:42:22.597Z,3.20
2023-02-18T08:44:56.409Z,3.30
2023-02-18T08:51:09.349Z,3.50
2023-02-18T08:54:58.082Z,3.60
2023-02-18T08:58:26.020Z,3.80
2023-02-18T09:01:34.284Z,3.40
2023-02-18T09:04:10.253Z,2.30
2023-02-18T09:06:43.398Z,5.20
2023-02-18T09:09:16.535Z,4.20
2023-02-18T09:11:49.449Z,5.40
2023-02-18T09:14:22.409Z,5.00
2023-02-18T09:16:55.731Z,3.20
2023-02-18T09:19:29.129Z,3.70
2023-02-18T09:22:01.857Z,4.60
2023-02-18T09:24:41.826Z,4.30
2023-02-18T09:27:15.310Z,4.70
2023-02-18T09:29:48.575Z,3.50
2023-02-18T09:32:33.576Z,4.20
2023-02-18T09:35:07.580Z,4.80
2023-02-18T09:37:41.533Z,3.70
2023-02-18T09:40:35.307Z,4.40
2023-02-18T09:43:09.233Z,3.20
2023-02-18T09:48:16.754Z,3.40
2023-02-18T09:50:54.552Z,4.00
2023-02-18T09:53:29.488Z,3.90
2023-02-18T09:56:04.228Z,3.80
2023-02-18T09:58:38.326Z,3.70
2023-02-18T10:01:30.848Z,2.30
2023-02-18T10:07:38.631Z,3.90
2023-02-18T10:10:22.894Z,13.90
2023-02-18T10:12:57.468Z,3.60
2023-02-18T10:15:33.463Z,3.40
2023-02-18T10:18:14.549Z,2.90
2023-02-18T10:20:47.757Z,3.60
2023-02-18T10:23:22.198Z,5.10
2023-02-18T10:25:56.223Z,3.80
2023-02-18T10:28:30.336Z,7.20
2023-02-18T10:31:08.831Z,6.20
2023-02-18T10:33:48.896Z,10.20
2023-02-18T10:36:28.227Z,6.90
2023-02-18T10:39:20.976Z,5.40
2023-02-18T10:42:02.894Z,9.20
2023-02-18T10:44:46.734Z,6.60
2023-02-18T10:47:32.388Z,4.70
2023-02-18T10:50:11.050Z,6.10
2023-02-18T10:52:47.655Z,4.10
2023-02-18T10:55:35.218Z,5.50
2023-02-18T10:58:26.058Z,3.70
2023-02-18T11:00:59.173Z,4.10
2023-02-18T11:03:44.118Z,3.80
2023-02-18T11:06:29.884Z,5.10
2023-02-18T11:09:04.022Z,5.30
2023-02-18T11:11:40.053Z,5.80
2023-02-18T11:14:36.843Z,4.50
2023-02-18T11:17:18.601Z,6.70
2023-02-18T11:19:58.652Z,5.90
2023-02-18T11:22:33.993Z,7.10
2023-02-18T11:25:21.042Z,3.70
2023-02-18T11:27:57.041Z,5.90
2023-02-18T11:30:35.864Z,4.20
2023-02-18T11:33:16.171Z,3.50
2023-02-18T11:35:54.480Z,5.50
2023-02-18T11:38:31.233Z,3.70
2023-02-18T11:41:16.568Z,4.40
2023-02-18T11:43:51.841Z,3.20
2023-02-18T11:46:27.400Z,3.40
2023-02-18T11:49:12.753Z,3.90
2023-02-18T11:51:46.294Z,3.80
2023-02-18T11:54:30.708Z,3.20
2023-02-18T11:57:08.182Z,3.30
2023-02-18T11:59:45.218Z,5.60
2023-02-18T12:02:32.099Z,3.60
2023-02-18T12:05:13.364Z,2.70
2023-02-18T12:07:52.132Z,4.20
2023-02-18T12:10:33.772Z,4.20
2023-02-18T12:13:14.298Z,4.30
2023-02-18T12:15:55.862Z,5.80
2023-02-18T12:19:01.303Z,6.20
2023-02-18T12:21:45.690Z,4.60
2023-02-18T12:24:34.703Z,5.80
2023-02-18T12:27:15.980Z,6.30
2023-02-18T12:30:30.006Z,5.80
2023-02-18T12:33:12.120Z,6.80
2023-02-18T12:36:00.067Z,7.20
2023-02-18T12:39:04.847Z,8.30
2023-02-18T12:41:54.754Z,8.30
2023-02-18T12:44:45.878Z,9.70
2023-02-18T12:47:41.843Z,8.20
2023-02-18T12:50:42.622Z,6.30
2023-02-18T12:53:50.686Z,9.40
2023-02-18T12:56:53.148Z,12.00
2023-02-18T12:59:47.142Z,12.00
2023-02-18T13:02:38.059Z,7.90
2023-02-18T13:05:20.569Z,9.40
2023-02-18T13:08:12.684Z,10.30
2023-02-18T13:11:00.661Z,7.80
2023-02-18T13:13:39.077Z,7.20
2023-02-18T13:16:15.676Z,8.30
2023-02-18T13:18:57.639Z,10.90
2023-02-18T13:21:32.941Z,6.30
2023-02-18T13:24:09.037Z,7.10
2023-02-18T13:26:43.898Z,4.90
2023-02-18T13:29:30.359Z,6.00
2023-02-18T13:32:19.404Z,7.60
2023-02-18T13:35:02.239Z,8.70
2023-02-18T13:37:50.089Z,8.50
2023-02-18T13:40:28.017Z,6.20
2023-02-18T13:43:21.817Z,6.20
2023-02-18T13:46:23.697Z,7.50
2023-02-18T13:49:06.637Z,9.90
2023-02-18T13:51:43.476Z,7.20
2023-02-18T13:54:25.993Z,4.10
2023-02-18T13:57:04.380Z,6.00
2023-02-18T13:59:43.051Z,5.80
2023-02-18T14:02:38.880Z,5.30
2023-02-18T14:05:26.115Z,6.90
2023-02-18T14:08:17.622Z,7.60
2023-02-18T14:11:35.220Z,8.70
2023-02-18T14:14:38.291Z,8.00
2023-02-18T14:17:39.668Z,8.40
2023-02-18T14:20:45.773Z,14.80
2023-02-18T14:23:45.702Z,13.00
2023-02-18T14:26:30.995Z,14.40
2023-02-18T14:29:08.790Z,13.50
2023-02-18T14:31:50.306Z,19.80
2023-02-18T14:35:00.175Z,16.10
2023-02-18T14:38:03.835Z,19.30
2023-02-18T14:41:02.849Z,19.70
2023-02-18T14:44:06.477Z,20.20
2023-02-18T14:46:59.796Z,13.80
2023-02-18T14:49:42.885Z,14.70
2023-02-18T14:52:30.777Z,14.10
2023-02-18T14:55:06.939Z,19.00
2023-02-18T14:57:47.162Z,15.90
2023-02-18T15:00:23.775Z,16.00
2023-02-18T15:02:58.407Z,20.40
2023-02-18T15:05:33.008Z,17.20
2023-02-18T15:08:09.488Z,14.40
2023-02-18T15:10:45.879Z,13.00
2023-02-18T15:13:23.660Z,13.70
2023-02-18T15:15:59.963Z,16.60
2023-02-18T15:18:40.601Z,13.70
2023-02-18T15:21:27.771Z,14.80
2023-02-18T15:24:09.937Z,16.20
2023-02-18T15:26:51.502Z,16.80
2023-02-18T15:29:29.462Z,15.00
2023-02-18T15:32:10.558Z,15.20
2023-02-18T15:34:47.993Z,15.00
2023-02-18T15:37:21.473Z,17.50
2023-02-18T15:39:57.496Z,16.80
2023-02-18T15:42:35.982Z,15.50
2023-02-18T15:45:22.471Z,14.60
2023-02-18T15:48:00.773Z,16.70
2023-02-18T15:50:39.410Z,13.60
2023-02-18T15:53:17.351Z,14.00
2023-02-18T15:55:55.592Z,14.80
2023-02-18T15:58:32.511Z,16.70
2023-02-18T16:01:10.679Z,14.30
2023-02-18T16:03:52.440Z,17.20
2023-02-18T16:06:28.873Z,18.30
2023-02-18T16:09:09.256Z,15.20
2023-02-18T16:11:47.115Z,15.30
2023-02-18T16:14:36.986Z,17.40
2023-02-18T16:17:17.016Z,19.20
2023-02-18T16:20:04.504Z,17.10
2023-02-18T16:22:52.653Z,18.80
2023-02-18T16:25:38.979Z,19.40
2023-02-18T16:28:24.477Z,19.30
2023-02-18T16:31:00.444Z,20.50
2023-02-18T16:33:39.377Z,19.50
2023-02-18T16:36:27.082Z,18.30
2023-02-18T16:39:02.995Z,21.80
2023-02-18T16:41:40.035Z,21.00
2023-02-18T16:44:19.195Z,19.20
2023-02-18T16:46:54.795Z,20.90
2023-02-18T16:49:30.924Z,19.20
2023-02-18T16:52:12.165Z,16.40
2023-02-18T16:54:48.699Z,13.90
2023-02-18T16:57:24.563Z,15.40
2023-02-18T17:00:00.525Z,18.00
2023-02-18T17:02:35.411Z,15.80
2023-02-18T17:05:25.483Z,13.80
2023-02-18T17:08:01.493Z,14.80
2023-02-18T17:10:34.836Z,13.20
2023-02-18T17:13:07.893Z,10.90
2023-02-18T17:15:41.546Z,13.10
2023-02-18T17:18:15.138Z,10.10
2023-02-18T17:23:27.094Z,11.70
2023-02-18T17:26:03.299Z,10.20
2023-02-18T17:28:42.434Z,13.50
2023-02-18T17:31:25.479Z,15.70
2023-02-18T17:34:01.524Z,13.80
2023-02-18T17:36:34.797Z,12.30
2023-02-18T17:39:15.661Z,14.40
2023-02-18T17:41:49.417Z,12.20
2023-02-18T17:44:24.025Z,14.40
2023-02-18T17:46:58.446Z,15.70
2023-02-18T17:49:31.170Z,15.90
2023-02-18T17:52:06.800Z,14.40
2023-02-18T17:54:39.857Z,13.60
2023-02-18T17:57:13.068Z,13.70
2023-02-18T17:59:45.953Z,17.00
2023-02-18T18:02:28.863Z,19.10
2023-02-18T18:05:01.352Z,16.60
2023-02-18T18:07:36.959Z,20.30
2023-02-18T18:10:11.358Z,25.00
2023-02-18T18:12:46.327Z,22.90
2023-02-18T18:15:30.214Z,20.40
2023-02-18T18:18:09.790Z,19.40
2023-02-18T18:20:45.164Z,17.60
2023-02-18T18:23:20.593Z,19.30
2023-02-18T18:25:55.694Z,19.30
2023-02-18T18:28:33.172Z,16.70
2023-02-18T18:31:16.500Z,16.90
2023-02-18T18:33:53.885Z,16.70
2023-02-18T18:36:28.320Z,17.70
2023-02-18T18:39:01.672Z,13.80
2023-02-18T18:41:35.380Z,13.20
2023-02-18T18:44:16.439Z,13.90
2023-02-18T18:46:51.847Z,10.20
2023-02-18T18:49:27.002Z,11.30
2023-02-18T18:52:00.391Z,10.90
2023-02-18T18:57:11.929Z,10.70
2023-02-18T18:59:47.220Z,9.40
2023-02-18T19:02:23.658Z,10.50
2023-02-18T19:04:57.354Z,11.80
2023-02-18T19:07:34.301Z,9.10
2023-02-18T19:10:12.771Z,9.00
2023-02-18T19:12:49.005Z,9.20
2023-02-18T19:15:27.170Z,10.60
2023-02-18T19:18:02.337Z,8.80
2023-02-18T19:20:40.131Z,7.70
2023-02-18T19:23:16.872Z,7.10
2023-02-18T19:25:53.057Z,7.50
2023-02-18T19:28:26.714Z,6.00
2023-02-18T19:30:59.645Z,8.10
2023-02-18T19:33:34.414Z,8.20
2023-02-18T19:36:14.133Z,9.40
2023-02-18T19:38:49.058Z,8.40
2023-02-18T19:41:26.615Z,7.50
2023-02-18T19:44:04.574Z,8.10
2023-02-18T19:46:38.196Z,7.80
2023-02-18T19:49:14.432Z,8.70
2023-02-18T19:51:49.580Z,5.80
2023-02-18T19:54:23.039Z,6.80
2023-02-18T19:56:56.179Z,5.90
2023-02-18T19:59:31.387Z,5.30
2023-02-18T20:02:05.039Z,5.90
2023-02-18T20:04:38.760Z,6.50
2023-02-18T20:07:19.603Z,5.40
2023-02-18T20:10:12.918Z,5.30
2023-02-18T20:12:56.580Z,4.50
2023-02-18T20:15:44.060Z,7.30
2023-02-18T20:18:21.319Z,6.90
2023-02-18T20:20:55.238Z,5.40
2023-02-18T20:26:03.381Z,5.00
2023-02-18T20:28:39.342Z,3.70
2023-02-18T20:31:14.978Z,4.60
2023-02-18T20:33:52.721Z,4.20
2023-02-18T20:36:26.428Z,6.00
2023-02-18T20:39:10.800Z,4.10
2023-02-18T20:42:02.911Z,4.90
2023-02-18T20:44:39.713Z,4.30
2023-02-18T20:47:14.586Z,4.70
2023-02-18T20:49:48.041Z,5.40
2023-02-18T20:54:52.660Z,4.60
2023-02-18T20:57:28.305Z,5.80
2023-02-18T21:00:01.681Z,4.20
2023-02-18T21:02:35.922Z,3.70
2023-02-18T21:05:10.272Z,4.20
2023-02-18T21:07:43.006Z,3.60
2023-02-18T21:10:16.399Z,3.30
2023-02-18T21:12:49.243Z,3.70
2023-02-18T21:15:22.559Z,3.10
2023-02-18T21:17:56.217Z,3.90
2023-02-18T21:20:29.438Z,3.60
2023-02-18T21:23:02.879Z,3.00
2023-02-18T21:28:09.555Z,4.30
2023-02-18T21:30:56.994Z,4.20
2023-02-18T21:33:30.073Z,3.90
2023-02-18T21:36:11.478Z,3.10
2023-02-18T21:38:47.597Z,4.60
2023-02-18T21:41:22.494Z,3.30
2023-02-18T21:43:55.554Z,2.90
2023-02-18T21:46:29.615Z,3.10
2023-02-18T21:49:06.244Z,3.80
2023-02-18T21:52:08.841Z,3.30
2023-02-18T21:54:45.014Z,3.10
2023-02-18T21:57:20.105Z,3.40
2023-02-18T21:59:52.870Z,4.30
2023-02-18T22:02:28.455Z,2.70
2023-02-18T22:05:02.868Z,1.80
2023-02-18T22:07:36.640Z,2.80
2023-02-18T22:10:11.610Z,2.30
2023-02-18T22:12:44.640Z,2.90
2023-02-18T22:15:18.042Z,2.40
2023-02-18T22:17:50.988Z,2.60
2023-02-18T22:20:23.811Z,2.00
2023-02-18T22:22:57.381Z,1.90
2023-02-18T22:25:30.083Z,2.40
2023-02-18T22:28:03.120Z,1.60
2023-02-18T22:30:35.955Z,2.20
2023-02-18T22:33:08.696Z,2.10
2023-02-18T22:35:41.416Z,1.90
2023-02-18T22:38:14.365Z,1.70
2023-02-18T22:40:50.818Z,1.70
2023-02-18T22:43:24.243Z,2.00
2023-02-18T22:45:59.491Z,3.00
2023-02-18T22:48:34.106Z,2.50
2023-02-18T22:53:44.890Z,2.30
2023-02-18T22:56:20.794Z,3.20
2023-02-18T22:58:55.605Z,2.70
2023-02-18T23:01:30.410Z,3.10
2023-02-18T23:04:08.200Z,2.90
2023-02-18T23:06:42.127Z,2.80
2023-02-18T23:09:17.394Z,5.10
2023-02-18T23:11:54.134Z,8.60
2023-02-18T23:14:30.154Z,6.20
2023-02-18T23:17:14.703Z,4.20
2023-02-18T23:19:49.334Z,4.00
2023-02-18T23:22:28.954Z,4.80
2023-02-18T23:25:04.460Z,4.60
2023-02-18T23:27:37.242Z,3.70
2023-02-18T23:30:11.617Z,5.00
2023-02-18T23:32:44.574Z,4.10
2023-02-18T23:35:21.565Z,4.20
2023-02-18T23:38:06.774Z,3.40
2023-02-18T23:40:40.239Z,4.60
2023-02-18T23:43:13.343Z,3.80
2023-02-18T23:45:46.139Z,3.30
2023-02-18T23:48:18.718Z,3.10
2023-02-18T23:50:52.499Z,3.90
2023-02-18T23:53:28.733Z,3.80
2023-02-18T23:56:13.105Z,4.00
2023-02-18T23:58:47.881Z,3.20
